createdAt,value
2023-01-07T00:28:05.493Z,59.41
2023-01-07T00:29:05.468Z,49.45
2023-01-07T00:30:05.466Z,53.90
2023-01-07T00:31:05.498Z,55.59
2023-01-07T00:32:06.551Z,52.96
2023-01-07T00:33:06.522Z,53.50
2023-01-07T00:34:06.533Z,62.29
2023-01-07T00:35:06.519Z,47.67
2023-01-07T00:36:06.516Z,54.58
2023-01-07T00:37:06.500Z,50.91
2023-01-07T00:38:06.500Z,54.91
2023-01-07T00:39:06.491Z,53.41
2023-01-07T00:40:06.485Z,54.05
2023-01-07T00:41:06.461Z,63.16
2023-01-07T00:42:06.487Z,62.41
2023-01-07T00:43:06.551Z,62.42
2023-01-07T00:44:07.169Z,57.53
2023-01-07T00:45:07.168Z,58.13
2023-01-07T00:46:06.431Z,47.96
2023-01-07T00:47:06.437Z,56.16
2023-01-07T00:48:07.226Z,57.22
2023-01-07T00:49:06.398Z,52.23
2023-01-07T00:50:10.151Z,53.09
2023-01-07T00:51:06.395Z,62.73
2023-01-07T00:52:08.224Z,56.65
2023-01-07T00:53:10.212Z,60.45
2023-01-07T00:54:06.360Z,54.99
2023-01-07T00:55:08.245Z,56.45
2023-01-07T00:56:07.234Z,58.40
2023-01-07T00:57:06.343Z,56.24
2023-01-07T00:58:06.328Z,63.41
2023-01-07T00:59:06.332Z,58.26
2023-01-07T01:00:06.320Z,49.64
2023-01-07T01:01:06.444Z,53.55
2023-01-07T01:02:06.521Z,52.82
2023-01-07T01:03:06.291Z,59.72
2023-01-07T01:04:06.276Z,57.28
2023-01-07T01:05:06.279Z,43.41
2023-01-07T01:06:07.288Z,53.99
2023-01-07T01:07:06.257Z,57.27
2023-01-07T01:08:06.247Z,58.71
2023-01-07T01:09:06.244Z,59.80
2023-01-07T01:10:06.237Z,57.56
2023-01-07T01:11:06.246Z,60.74
2023-01-07T01:12:06.216Z,58.76
2023-01-07T01:13:06.204Z,57.60
2023-01-07T01:14:06.223Z,64.01
2023-01-07T01:15:06.289Z,55.30
2023-01-07T01:16:06.222Z,61.66
2023-01-07T01:17:06.182Z,62.75
2023-01-07T01:18:06.165Z,63.17
2023-01-07T01:19:07.176Z,53.88
2023-01-07T01:20:06.147Z,57.07
2023-01-07T01:21:06.152Z,56.13
2023-01-07T01:22:06.140Z,58.54
2023-01-07T01:23:06.123Z,62.83
2023-01-07T01:24:06.131Z,59.10
2023-01-07T01:25:06.109Z,58.96
2023-01-07T01:26:06.109Z,56.42
2023-01-07T01:27:06.110Z,55.20
2023-01-07T01:28:06.089Z,48.81
2023-01-07T01:29:06.075Z,59.74
2023-01-07T01:30:06.070Z,58.86
2023-01-07T01:31:06.203Z,61.89
2023-01-07T01:32:06.048Z,53.34
2023-01-07T01:33:07.049Z,54.18
2023-01-07T01:34:06.046Z,52.95
2023-01-07T01:35:06.029Z,64.04
2023-01-07T01:36:06.015Z,55.29
2023-01-07T01:37:06.015Z,50.26
2023-01-07T01:38:05.998Z,60.15
2023-01-07T01:39:05.995Z,58.44
2023-01-07T01:40:05.976Z,59.29
2023-01-07T01:41:05.992Z,51.64
2023-01-07T01:42:05.960Z,41.18
2023-01-07T01:43:05.963Z,51.69
2023-01-07T01:44:05.963Z,55.41
2023-01-07T01:45:05.935Z,59.60
2023-01-07T01:46:05.926Z,58.13
2023-01-07T01:47:06.052Z,59.21
2023-01-07T01:48:05.912Z,53.65
2023-01-07T01:49:05.920Z,52.65
2023-01-07T01:50:05.908Z,60.72
2023-01-07T01:51:05.904Z,53.99
2023-01-07T01:52:05.881Z,55.85
2023-01-07T01:53:05.876Z,59.57
2023-01-07T01:54:05.892Z,58.09
2023-01-07T01:55:05.861Z,56.30
2023-01-07T01:56:05.872Z,52.81
2023-01-07T01:57:06.672Z,50.47
2023-01-07T01:58:05.828Z,58.70
2023-01-07T01:59:05.820Z,51.26
2023-01-07T02:00:06.759Z,44.34
2023-01-07T02:01:06.010Z,51.52
2023-01-07T02:02:05.984Z,55.59
2023-01-07T02:03:06.790Z,52.56
2023-01-07T02:04:05.779Z,62.32
2023-01-07T02:05:05.798Z,59.15
2023-01-07T02:06:06.754Z,57.80
2023-01-07T02:07:05.766Z,56.65
2023-01-07T02:08:05.750Z,50.26
2023-01-07T02:09:06.664Z,50.31
2023-01-07T02:10:05.748Z,46.18
2023-01-07T02:11:05.736Z,53.69
2023-01-07T02:12:05.761Z,59.99
2023-01-07T02:13:05.708Z,65.05
2023-01-07T02:14:05.702Z,51.35
2023-01-07T02:15:05.704Z,58.97
2023-01-07T02:16:05.758Z,54.39
2023-01-07T02:17:05.686Z,41.26
2023-01-07T02:18:05.671Z,47.25
2023-01-07T02:19:05.762Z,51.08
2023-01-07T02:20:05.652Z,53.32
2023-01-07T02:21:05.642Z,54.05
2023-01-07T02:22:05.623Z,51.79
2023-01-07T02:23:05.620Z,44.62
2023-01-07T02:24:05.630Z,54.85
2023-01-07T02:25:05.612Z,54.31
2023-01-07T02:26:05.599Z,54.20
2023-01-07T02:27:05.611Z,55.13
2023-01-07T02:28:05.587Z,52.00
2023-01-07T02:29:05.578Z,44.15
2023-01-07T02:30:05.562Z,53.02
2023-01-07T02:31:05.558Z,57.77
2023-01-07T02:32:05.561Z,51.18
2023-01-07T02:33:05.555Z,58.68
2023-01-07T02:34:05.537Z,51.91
2023-01-07T02:35:05.649Z,44.48
2023-01-07T02:36:05.512Z,54.62
2023-01-07T02:37:06.173Z,42.97
2023-01-07T02:38:05.506Z,57.61
2023-01-07T02:39:05.513Z,49.88
2023-01-07T02:40:06.235Z,46.11
2023-01-07T02:41:06.484Z,50.40
2023-01-07T02:42:05.476Z,55.93
2023-01-07T02:43:05.463Z,59.42
2023-01-07T02:44:06.252Z,52.04
2023-01-07T02:45:05.445Z,52.93
2023-01-07T02:46:05.506Z,40.87
2023-01-07T02:47:05.438Z,57.72
2023-01-07T02:48:05.429Z,52.03
2023-01-07T02:49:05.421Z,49.64
2023-01-07T02:50:05.412Z,49.18
2023-01-07T02:51:06.274Z,52.66
2023-01-07T02:52:06.240Z,55.29
2023-01-07T02:53:06.388Z,46.74
2023-01-07T02:54:05.386Z,50.41
2023-01-07T02:55:05.379Z,40.49
2023-01-07T02:56:05.377Z,46.65
2023-01-07T02:57:05.360Z,56.01
2023-01-07T02:58:05.345Z,59.88
2023-01-07T02:59:05.336Z,43.97
2023-01-07T03:00:05.331Z,57.85
2023-01-07T03:01:05.523Z,44.75
2023-01-07T03:02:05.408Z,58.08
2023-01-07T03:03:05.312Z,57.38
2023-01-07T03:04:05.416Z,50.54
2023-01-07T03:05:05.306Z,39.45
2023-01-07T03:06:05.290Z,45.55
2023-01-07T03:07:05.373Z,48.30
2023-01-07T03:08:05.281Z,44.94
2023-01-07T03:09:05.254Z,55.91
2023-01-07T03:10:05.303Z,52.84
2023-01-07T03:11:05.244Z,51.11
2023-01-07T03:12:05.228Z,49.11
2023-01-07T03:13:05.229Z,51.83
2023-01-07T03:14:05.222Z,53.78
2023-01-07T03:15:05.201Z,43.88
2023-01-07T03:16:05.251Z,44.25
2023-01-07T03:17:05.188Z,53.16
2023-01-07T03:18:05.184Z,59.55
2023-01-07T03:19:05.185Z,45.83
2023-01-07T03:20:05.165Z,55.99
2023-01-07T03:21:05.154Z,56.25
2023-01-07T03:22:05.171Z,51.29
2023-01-07T03:23:05.244Z,55.20
2023-01-07T03:24:05.142Z,48.98
2023-01-07T03:25:05.136Z,53.36
2023-01-07T03:26:05.107Z,45.44
2023-01-07T03:27:05.111Z,54.03
2023-01-07T03:28:05.118Z,48.24
2023-01-07T03:29:05.767Z,46.02
2023-01-07T03:30:05.097Z,47.67
2023-01-07T03:31:06.701Z,50.28
2023-01-07T03:32:05.145Z,55.02
2023-01-07T03:33:05.070Z,56.87
2023-01-07T03:34:05.051Z,55.18
2023-01-07T03:35:05.055Z,53.80
2023-01-07T03:36:05.062Z,53.52
2023-01-07T03:37:05.034Z,46.02
2023-01-07T03:38:05.028Z,53.31
2023-01-07T03:39:05.109Z,53.45
2023-01-07T03:40:05.017Z,61.59
2023-01-07T03:41:06.006Z,43.56
2023-01-07T03:44:13.333Z,49.38
2023-01-07T03:45:12.327Z,52.71
2023-01-07T03:46:12.360Z,46.85
2023-01-07T03:47:12.315Z,57.30
2023-01-07T03:48:12.312Z,55.81
2023-01-07T03:49:13.389Z,55.11
2023-01-07T03:50:13.381Z,51.28
2023-01-07T03:51:14.210Z,48.13
2023-01-07T03:52:13.371Z,51.30
2023-01-07T03:53:13.361Z,49.72
2023-01-07T03:54:13.460Z,57.41
2023-01-07T03:55:13.352Z,52.20
2023-01-07T03:56:13.329Z,53.11
2023-01-07T03:57:13.325Z,48.85
2023-01-07T03:58:13.319Z,48.38
2023-01-07T03:59:13.299Z,54.36
2023-01-07T04:00:13.310Z,57.80
2023-01-07T04:01:13.361Z,41.65
2023-01-07T04:02:13.410Z,50.41
2023-01-07T04:03:13.273Z,54.89
2023-01-07T04:04:13.289Z,53.93
2023-01-07T04:05:14.265Z,45.32
2023-01-07T04:06:13.249Z,41.00
2023-01-07T04:07:13.244Z,47.10
2023-01-07T04:08:13.244Z,56.25
2023-01-07T04:09:13.225Z,52.69
2023-01-07T04:10:14.344Z,41.63
2023-01-07T04:11:13.211Z,42.84
2023-01-07T04:12:13.203Z,54.73
2023-01-07T04:13:13.210Z,56.12
2023-01-07T04:14:13.801Z,52.34
2023-01-07T04:15:13.192Z,51.41
2023-01-07T04:16:13.193Z,53.24
2023-01-07T04:17:13.162Z,55.70
2023-01-07T04:18:13.717Z,54.92
2023-01-07T04:19:13.158Z,58.61
2023-01-07T04:20:13.818Z,56.64
2023-01-07T04:21:13.132Z,56.11
2023-01-07T04:22:13.128Z,61.96
2023-01-07T04:23:13.116Z,55.56
2023-01-07T04:24:13.716Z,59.06
2023-01-07T04:25:13.113Z,57.93
2023-01-07T04:26:13.193Z,62.56
2023-01-07T04:27:13.082Z,58.25
2023-01-07T04:28:13.078Z,57.89
2023-01-07T04:29:13.072Z,49.47
2023-01-07T04:30:13.237Z,54.91
2023-01-07T04:31:13.799Z,53.85
2023-01-07T04:32:13.040Z,60.31
2023-01-07T04:33:13.034Z,60.97
2023-01-07T04:34:13.018Z,57.98
2023-01-07T04:35:13.029Z,56.65
2023-01-07T04:36:13.023Z,63.73
2023-01-07T04:37:12.999Z,60.25
2023-01-07T04:38:12.991Z,61.16
2023-01-07T04:39:12.982Z,58.42
2023-01-07T04:40:12.979Z,52.54
2023-01-07T04:41:12.971Z,60.24
2023-01-07T04:42:13.056Z,55.75
2023-01-07T04:43:12.976Z,56.94
2023-01-07T04:44:12.942Z,59.47
2023-01-07T04:45:12.936Z,54.65
2023-01-07T04:46:12.992Z,50.56
2023-01-07T04:47:12.915Z,57.75
2023-01-07T04:48:12.910Z,55.84
2023-01-07T04:49:12.895Z,57.23
2023-01-07T04:50:12.907Z,57.51
2023-01-07T04:51:12.891Z,59.55
2023-01-07T04:52:12.889Z,52.53
2023-01-07T04:53:12.872Z,57.84
2023-01-07T04:54:12.858Z,60.77
2023-01-07T04:55:12.853Z,58.79
2023-01-07T04:56:12.855Z,55.56
2023-01-07T04:57:12.847Z,55.34
2023-01-07T04:58:13.957Z,50.67
2023-01-07T04:59:13.807Z,57.12
2023-01-07T05:00:12.818Z,57.10
2023-01-07T05:01:12.986Z,53.90
2023-01-07T05:02:12.869Z,58.37
2023-01-07T05:03:13.790Z,53.00
2023-01-07T05:04:12.833Z,58.80
2023-01-07T05:05:12.791Z,57.54
2023-01-07T05:06:12.775Z,55.30
2023-01-07T05:07:13.757Z,52.61
2023-01-07T05:08:12.752Z,52.41
2023-01-07T05:09:13.310Z,54.28
2023-01-07T05:10:12.740Z,55.50
2023-01-07T05:11:12.733Z,57.71
2023-01-07T05:12:12.725Z,60.17
2023-01-07T05:13:12.713Z,58.52
2023-01-07T05:14:12.820Z,57.60
2023-01-07T05:15:12.713Z,58.14
2023-01-07T05:16:12.698Z,58.04
2023-01-07T05:17:12.683Z,57.97
2023-01-07T05:18:12.674Z,55.60
2023-01-07T05:19:12.669Z,56.01
2023-01-07T05:20:12.665Z,56.20
2023-01-07T05:21:12.678Z,59.70
2023-01-07T05:22:13.234Z,63.80
2023-01-07T05:23:12.634Z,65.17
2023-01-07T05:24:12.626Z,61.24
2023-01-07T05:25:12.623Z,66.76
2023-01-07T05:26:12.643Z,61.74
2023-01-07T05:27:12.615Z,58.48
2023-01-07T05:28:13.270Z,63.70
2023-01-07T05:29:12.589Z,65.11
2023-01-07T05:30:13.417Z,68.65
2023-01-07T05:31:12.651Z,63.88
2023-01-07T05:32:12.564Z,61.84
2023-01-07T05:33:12.571Z,59.66
2023-01-07T05:34:12.561Z,58.75
2023-01-07T05:35:13.236Z,53.94
2023-01-07T05:36:12.529Z,60.71
2023-01-07T05:37:12.545Z,58.11
2023-01-07T05:38:12.536Z,48.44
2023-01-07T05:39:12.505Z,54.77
2023-01-07T05:40:12.501Z,57.21
2023-01-07T05:41:12.494Z,57.53
2023-01-07T05:42:12.497Z,61.04
2023-01-07T05:43:12.485Z,57.91
2023-01-07T05:44:12.487Z,62.40
2023-01-07T05:45:12.486Z,56.25
2023-01-07T05:46:12.681Z,54.94
2023-01-07T05:47:12.461Z,60.25
2023-01-07T05:48:12.433Z,59.70
2023-01-07T05:49:12.435Z,58.43
2023-01-07T05:50:12.432Z,63.02
2023-01-07T05:51:12.452Z,62.66
2023-01-07T05:52:12.406Z,61.88
2023-01-07T05:53:12.402Z,55.22
2023-01-07T05:54:12.403Z,55.15
2023-01-07T05:55:12.375Z,63.42
2023-01-07T05:56:12.383Z,61.40
2023-01-07T05:57:12.362Z,57.45
2023-01-07T05:58:12.371Z,50.69
2023-01-07T05:59:12.351Z,54.77
2023-01-07T06:00:12.355Z,55.57
2023-01-07T06:01:13.353Z,54.30
2023-01-07T06:02:12.417Z,55.79
2023-01-07T06:03:12.369Z,62.23
2023-01-07T06:04:12.320Z,56.88
2023-01-07T06:05:12.822Z,53.58
2023-01-07T06:06:12.286Z,60.04
2023-01-07T06:07:12.280Z,59.48
2023-01-07T06:08:12.272Z,58.91
2023-01-07T06:09:12.263Z,59.69
2023-01-07T06:10:12.261Z,56.46
2023-01-07T06:11:12.246Z,48.99
2023-01-07T06:12:12.239Z,54.27
2023-01-07T06:13:12.230Z,59.60
2023-01-07T06:14:12.222Z,58.15
2023-01-07T06:15:12.215Z,52.98
2023-01-07T06:16:12.267Z,58.29
2023-01-07T06:17:12.211Z,60.84
2023-01-07T06:18:13.869Z,59.21
2023-01-07T06:19:12.204Z,54.85
2023-01-07T06:20:12.751Z,62.70
2023-01-07T06:21:12.741Z,60.31
2023-01-07T06:22:12.818Z,61.85
2023-01-07T06:23:12.145Z,51.34
2023-01-07T06:24:12.132Z,62.63
2023-01-07T06:25:12.136Z,61.21
2023-01-07T06:26:12.131Z,63.41
2023-01-07T06:27:12.827Z,60.68
2023-01-07T06:28:12.105Z,53.70
2023-01-07T06:29:12.103Z,56.31
2023-01-07T06:30:12.094Z,61.74
2023-01-07T06:31:12.226Z,56.78
2023-01-07T06:32:12.073Z,63.63
2023-01-07T06:33:12.067Z,61.27
2023-01-07T06:34:12.166Z,61.32
2023-01-07T06:35:12.054Z,60.33
2023-01-07T06:36:12.043Z,59.43
2023-01-07T06:37:12.028Z,61.07
2023-01-07T06:38:12.033Z,64.93
2023-01-07T06:39:12.023Z,63.21
2023-01-07T06:40:12.026Z,57.19
2023-01-07T06:41:12.017Z,54.51
2023-01-07T06:42:11.991Z,55.67
2023-01-07T06:43:11.985Z,59.73
2023-01-07T06:44:11.975Z,50.67
2023-01-07T06:45:11.993Z,60.00
2023-01-07T06:46:12.005Z,61.50
2023-01-07T06:47:11.955Z,60.49
2023-01-07T06:48:11.963Z,59.56
2023-01-07T06:49:11.941Z,62.05
2023-01-07T06:50:12.035Z,56.64
2023-01-07T06:51:11.926Z,59.35
2023-01-07T06:52:11.912Z,56.75
2023-01-07T06:53:11.901Z,61.97
2023-01-07T06:54:11.897Z,64.04
2023-01-07T06:55:11.897Z,63.00
2023-01-07T06:56:11.885Z,60.63
2023-01-07T06:57:11.871Z,62.04
2023-01-07T06:58:11.863Z,57.56
2023-01-07T06:59:11.859Z,59.27
2023-01-07T07:00:11.860Z,60.80
2023-01-07T07:01:11.941Z,64.98
2023-01-07T07:02:11.884Z,63.82
2023-01-07T07:03:11.930Z,57.51
2023-01-07T07:04:11.814Z,56.06
2023-01-07T07:05:11.805Z,57.45
2023-01-07T07:06:11.947Z,59.55
2023-01-07T07:07:11.786Z,56.66
2023-01-07T07:08:11.784Z,63.95
2023-01-07T07:09:11.771Z,54.87
2023-01-07T07:10:11.867Z,53.80
2023-01-07T07:11:12.776Z,59.86
2023-01-07T07:12:13.330Z,60.80
2023-01-07T07:13:11.769Z,55.06
2023-01-07T07:14:11.727Z,60.80
2023-01-07T07:15:11.721Z,56.47
2023-01-07T07:16:11.790Z,55.52
2023-01-07T07:17:11.704Z,56.81
2023-01-07T07:18:11.692Z,60.11
2023-01-07T07:19:12.262Z,59.64
2023-01-07T07:20:11.676Z,63.22
2023-01-07T07:21:11.707Z,67.09
2023-01-07T07:22:11.763Z,60.60
2023-01-07T07:23:11.653Z,62.71
2023-01-07T07:24:11.649Z,59.42
2023-01-07T07:25:11.653Z,63.95
2023-01-07T07:26:11.628Z,65.45
2023-01-07T07:27:11.628Z,62.75
2023-01-07T07:28:11.610Z,62.09
2023-01-07T07:29:12.600Z,63.47
2023-01-07T07:30:11.592Z,66.60
2023-01-07T07:31:11.629Z,64.60
2023-01-07T07:32:11.608Z,64.97
2023-01-07T07:33:11.577Z,64.66
2023-01-07T07:34:11.580Z,61.69
2023-01-07T07:35:11.552Z,61.41
2023-01-07T07:36:11.555Z,63.75
2023-01-07T07:37:11.556Z,61.95
2023-01-07T07:38:11.636Z,60.80
2023-01-07T07:39:11.527Z,62.75
2023-01-07T07:40:11.529Z,64.34
2023-01-07T07:41:13.259Z,63.17
2023-01-07T07:42:11.496Z,60.60
2023-01-07T07:43:14.382Z,60.82
2023-01-07T07:44:12.491Z,59.97
2023-01-07T07:45:11.484Z,61.30
2023-01-07T07:46:11.529Z,61.28
2023-01-07T07:47:11.453Z,63.45
2023-01-07T07:48:12.450Z,62.41
2023-01-07T07:49:11.467Z,61.03
2023-01-07T07:50:11.439Z,62.44
2023-01-07T07:51:11.429Z,63.11
2023-01-07T07:52:11.434Z,61.40
2023-01-07T07:53:11.408Z,66.33
2023-01-07T07:54:11.508Z,64.21
2023-01-07T07:55:20.384Z,62.93
2023-01-07T07:56:12.399Z,66.90
2023-01-07T07:57:11.378Z,62.88
2023-01-07T07:58:14.265Z,63.34
2023-01-07T07:59:11.365Z,62.64
2023-01-07T08:00:16.292Z,62.50
2023-01-07T08:01:13.867Z,65.06
2023-01-07T08:02:11.446Z,63.29
2023-01-07T08:03:11.438Z,64.54
2023-01-07T08:04:11.336Z,61.79
2023-01-07T08:05:11.317Z,64.23
2023-01-07T08:06:11.309Z,67.23
2023-01-07T08:07:11.298Z,63.19
2023-01-07T08:08:11.289Z,62.01
2023-01-07T08:09:11.290Z,64.45
2023-01-07T08:10:11.380Z,62.07
2023-01-07T08:11:11.263Z,60.98
2023-01-07T08:12:11.773Z,64.26
2023-01-07T08:13:11.255Z,63.02
2023-01-07T08:14:11.246Z,62.66
2023-01-07T08:15:11.770Z,62.63
2023-01-07T08:16:11.258Z,61.34
2023-01-07T08:17:11.219Z,66.18
2023-01-07T08:18:11.781Z,65.60
2023-01-07T08:19:11.853Z,64.85
2023-01-07T08:20:11.187Z,66.34
2023-01-07T08:21:11.184Z,65.07
2023-01-07T08:22:11.168Z,65.39
2023-01-07T08:23:12.173Z,64.34
2023-01-07T08:24:11.167Z,64.74
2023-01-07T08:25:11.154Z,63.76
2023-01-07T08:26:11.252Z,62.65
2023-01-07T08:27:11.151Z,63.55
2023-01-07T08:28:11.783Z,64.59
2023-01-07T08:29:12.149Z,64.41
2023-01-07T08:30:11.103Z,62.74
2023-01-07T08:31:11.166Z,65.81
2023-01-07T08:32:11.095Z,63.14
2023-01-07T08:33:11.797Z,65.35
2023-01-07T08:34:11.091Z,63.33
2023-01-07T08:35:11.070Z,62.78
2023-01-07T08:36:22.031Z,64.97
2023-01-07T08:37:13.047Z,64.94
2023-01-07T08:38:11.043Z,64.38
2023-01-07T08:39:11.780Z,64.45
2023-01-07T08:40:11.849Z,63.65
2023-01-07T08:41:11.016Z,64.19
2023-01-07T08:42:11.120Z,62.81
2023-01-07T08:43:11.780Z,64.58
2023-01-07T08:44:10.988Z,63.15
2023-01-07T08:45:11.028Z,62.39
2023-01-07T08:46:10.978Z,62.83
2023-01-07T08:47:10.970Z,64.08
2023-01-07T08:48:10.970Z,63.65
2023-01-07T08:49:10.955Z,65.79
2023-01-07T08:50:10.949Z,65.98
2023-01-07T08:51:10.953Z,63.66
2023-01-07T08:52:10.928Z,64.59
2023-01-07T08:53:10.927Z,65.74
2023-01-07T08:54:10.910Z,64.72
2023-01-07T08:55:10.905Z,65.99
2023-01-07T08:56:10.917Z,63.92
2023-01-07T08:57:10.889Z,65.51
2023-01-07T08:58:10.998Z,62.16
2023-01-07T08:59:10.877Z,64.30
2023-01-07T09:00:10.868Z,63.66
2023-01-07T09:01:11.006Z,64.77
2023-01-07T09:02:10.996Z,67.97
2023-01-07T09:03:10.866Z,64.78
2023-01-07T09:04:10.835Z,64.36
2023-01-07T09:05:10.825Z,65.34
2023-01-07T09:06:10.824Z,64.04
2023-01-07T09:07:11.407Z,61.93
2023-01-07T09:08:10.815Z,63.08
2023-01-07T09:09:11.357Z,62.92
2023-01-07T09:10:10.795Z,63.61
2023-01-07T09:11:10.783Z,63.23
2023-01-07T09:12:11.240Z,63.53
2023-01-07T09:13:11.768Z,64.36
2023-01-07T09:14:10.849Z,65.72
2023-01-07T09:15:10.742Z,63.77
2023-01-07T09:16:10.757Z,61.41
2023-01-07T09:17:10.727Z,64.45
2023-01-07T09:18:10.734Z,64.73
2023-01-07T09:19:10.708Z,65.72
2023-01-07T09:20:10.718Z,67.47
2023-01-07T09:21:10.759Z,65.18
2023-01-07T09:22:10.683Z,63.39
2023-01-07T09:23:10.699Z,65.78
2023-01-07T09:24:10.674Z,64.79
2023-01-07T09:25:10.694Z,64.04
2023-01-07T09:26:10.657Z,65.82
2023-01-07T09:27:10.654Z,64.15
2023-01-07T09:28:13.286Z,66.00
2023-01-07T09:29:43.947Z,66.85
2023-01-07T09:30:10.634Z,64.66
2023-01-07T09:31:10.706Z,64.08
2023-01-07T09:32:10.664Z,64.71
2023-01-07T09:33:10.599Z,65.52
2023-01-07T09:34:12.416Z,63.52
2023-01-07T09:35:10.585Z,66.79
2023-01-07T09:36:10.597Z,65.93
2023-01-07T09:37:10.591Z,61.64
2023-01-07T09:38:10.567Z,63.96
2023-01-07T09:39:10.547Z,64.89
2023-01-07T09:40:10.556Z,63.78
2023-01-07T09:41:10.553Z,66.24
2023-01-07T09:42:10.544Z,60.99
2023-01-07T09:43:10.524Z,65.02
2023-01-07T09:44:10.513Z,64.96
2023-01-07T09:45:10.611Z,66.55
2023-01-07T09:46:10.512Z,64.43
2023-01-07T09:47:10.483Z,66.05
2023-01-07T09:48:10.482Z,64.89
2023-01-07T09:49:12.393Z,64.08
2023-01-07T09:50:11.332Z,65.26
2023-01-07T09:51:12.408Z,65.38
2023-01-07T09:52:10.448Z,65.64
2023-01-07T09:53:10.483Z,65.91
2023-01-07T09:54:10.442Z,67.13
2023-01-07T09:55:12.407Z,63.96
2023-01-07T09:56:12.881Z,66.14
2023-01-07T09:57:10.400Z,64.76
2023-01-07T09:58:10.917Z,64.42
2023-01-07T09:59:10.414Z,65.54
2023-01-07T10:00:10.372Z,66.87
2023-01-07T10:01:10.502Z,66.92
2023-01-07T10:02:10.360Z,65.78
2023-01-07T10:03:12.331Z,67.40
2023-01-07T10:04:10.400Z,66.86
2023-01-07T10:05:10.339Z,67.50
2023-01-07T10:06:10.328Z,66.22
2023-01-07T10:07:10.313Z,65.37
2023-01-07T10:08:31.551Z,66.37
2023-01-07T10:09:11.306Z,65.14
2023-01-07T10:10:10.323Z,65.63
2023-01-07T10:11:10.289Z,66.79
2023-01-07T10:12:10.289Z,64.70
2023-01-07T10:13:10.269Z,65.57
2023-01-07T10:14:10.261Z,64.04
2023-01-07T10:15:10.256Z,67.50
2023-01-07T10:16:11.935Z,65.28
2023-01-07T10:17:12.040Z,64.75
2023-01-07T10:18:11.903Z,65.37
2023-01-07T10:19:10.228Z,68.84
2023-01-07T10:20:10.209Z,66.34
2023-01-07T10:21:10.207Z,67.40
2023-01-07T10:22:10.203Z,69.66
2023-01-07T10:23:10.208Z,65.66
2023-01-07T10:24:10.181Z,65.74
2023-01-07T10:25:11.954Z,66.94
2023-01-07T10:26:10.176Z,65.63
2023-01-07T10:27:10.173Z,66.80
2023-01-07T10:28:10.158Z,65.63
2023-01-07T10:29:10.147Z,68.07
2023-01-07T10:30:10.139Z,67.92
2023-01-07T10:31:10.832Z,66.42
2023-01-07T10:32:10.909Z,67.64
2023-01-07T10:33:10.264Z,66.35
2023-01-07T10:34:10.914Z,64.91
2023-01-07T10:35:10.084Z,66.66
2023-01-07T10:36:10.837Z,67.41
2023-01-07T10:37:11.903Z,63.41
2023-01-07T10:38:10.065Z,67.12
2023-01-07T10:39:10.925Z,63.57
2023-01-07T10:40:10.051Z,64.17
2023-01-07T10:41:10.056Z,66.22
2023-01-07T21:27:03.730Z,60.60
2023-01-07T21:28:03.714Z,57.02
2023-01-07T21:29:03.717Z,61.43
2023-01-07T21:30:05.828Z,62.02
2023-01-07T21:31:03.688Z,64.42
2023-01-07T21:32:03.763Z,66.12
2023-01-07T21:33:03.675Z,63.65
2023-01-07T21:34:03.670Z,56.32
2023-01-07T21:35:03.655Z,62.19
2023-01-07T21:36:03.645Z,61.10
2023-01-07T21:37:03.642Z,60.37
2023-01-07T21:38:03.630Z,62.10
2023-01-07T21:39:04.730Z,60.73
2023-01-07T21:40:04.785Z,62.29
2023-01-07T21:41:04.718Z,63.59
2023-01-07T21:42:04.832Z,62.07
2023-01-07T21:43:04.683Z,62.40
2023-01-07T21:44:04.681Z,59.88
2023-01-07T21:45:04.669Z,62.67
2023-01-07T21:46:04.719Z,59.20
2023-01-07T21:47:04.662Z,66.27
2023-01-07T21:48:04.654Z,62.22
2023-01-07T21:49:04.638Z,57.57
2023-01-07T21:50:04.649Z,61.56
2023-01-07T21:51:04.623Z,61.60
2023-01-07T21:52:04.622Z,60.36
2023-01-07T21:53:04.614Z,63.54
2023-01-07T21:54:04.606Z,58.34
2023-01-07T21:55:04.591Z,63.93
2023-01-07T21:56:04.576Z,62.33
2023-01-07T21:57:06.105Z,60.50
2023-01-07T21:58:04.667Z,61.15
2023-01-07T21:59:04.624Z,60.69
2023-01-07T22:00:04.554Z,61.82
2023-01-07T22:01:04.653Z,65.15
2023-01-07T22:02:04.925Z,65.54
2023-01-07T22:03:04.541Z,63.57
2023-01-07T22:04:04.646Z,55.88
2023-01-07T22:05:06.179Z,60.49
2023-01-07T22:06:04.499Z,60.67
2023-01-07T22:07:04.494Z,54.81
2023-01-07T22:08:04.499Z,59.04
2023-01-07T22:09:05.175Z,61.92
2023-01-07T22:10:05.476Z,58.20
2023-01-07T22:11:04.492Z,57.82
2023-01-07T22:12:04.453Z,54.85
2023-01-07T22:13:04.453Z,56.00
2023-01-07T22:14:04.567Z,58.90
2023-01-07T22:15:04.435Z,60.74
2023-01-07T22:16:04.497Z,57.11
2023-01-07T22:17:04.419Z,60.56
2023-01-07T22:18:04.405Z,56.42
2023-01-07T22:19:04.419Z,61.81
2023-01-07T22:20:04.391Z,61.87
2023-01-07T22:21:04.397Z,56.67
2023-01-07T22:22:04.387Z,58.88
2023-01-07T22:23:04.362Z,61.25
2023-01-07T22:24:04.365Z,59.47
2023-01-07T22:25:04.353Z,60.79
2023-01-07T22:26:04.347Z,60.63
2023-01-07T22:27:04.374Z,55.85
2023-01-07T22:28:04.348Z,52.11
2023-01-07T22:29:04.332Z,54.28
2023-01-07T22:30:06.212Z,58.69
2023-01-07T22:31:04.461Z,57.44
2023-01-07T22:32:04.335Z,60.16
2023-01-07T22:33:04.290Z,62.01
2023-01-07T22:34:04.707Z,58.27
2023-01-07T22:35:04.499Z,58.41
2023-01-07T22:36:04.262Z,61.16
2023-01-07T22:37:04.265Z,55.72
2023-01-07T22:38:05.259Z,60.47
2023-01-07T22:39:06.252Z,55.50
2023-01-07T22:40:04.265Z,60.01
2023-01-07T22:41:04.220Z,56.96
2023-01-07T22:42:04.215Z,56.98
2023-01-07T22:43:04.222Z,57.40
2023-01-07T22:44:04.220Z,59.43
2023-01-07T22:45:04.193Z,55.60
2023-01-07T22:46:04.341Z,53.41
2023-01-07T22:47:04.179Z,59.53
2023-01-07T22:48:04.163Z,55.03
2023-01-07T22:49:04.162Z,55.66
2023-01-07T22:50:04.693Z,56.49
2023-01-07T22:51:04.140Z,59.81
2023-01-07T22:52:04.141Z,58.35
2023-01-07T22:53:04.123Z,59.76
2023-01-07T22:54:04.116Z,59.99
2023-01-07T22:55:04.121Z,61.71
2023-01-07T22:56:04.618Z,59.67
2023-01-07T22:57:05.091Z,54.03
2023-01-07T22:58:04.080Z,61.14
2023-01-07T22:59:04.081Z,60.69
2023-01-07T23:00:04.061Z,59.43
2023-01-07T23:01:04.088Z,60.40
2023-01-07T23:02:04.154Z,59.70
2023-01-07T23:03:04.131Z,56.88
2023-01-07T23:04:04.791Z,55.00
2023-01-07T23:05:04.021Z,58.81
2023-01-07T23:06:04.020Z,58.18
2023-01-07T23:07:04.001Z,57.85
2023-01-07T23:08:04.669Z,58.79
2023-01-07T23:09:04.007Z,57.89
2023-01-07T23:10:03.994Z,53.83
2023-01-07T23:11:03.976Z,59.76
2023-01-07T23:12:03.964Z,56.08
2023-01-07T23:13:03.958Z,54.52
2023-01-07T23:14:03.996Z,59.40
2023-01-07T23:15:03.944Z,51.85
2023-01-07T23:16:04.013Z,57.29
2023-01-07T23:17:03.924Z,60.43
2023-01-07T23:18:04.124Z,57.01
2023-01-07T23:19:03.901Z,56.28
2023-01-07T23:20:03.903Z,60.74
2023-01-07T23:21:03.885Z,58.30
2023-01-07T23:22:03.879Z,59.59
2023-01-07T23:23:03.910Z,52.94
2023-01-07T23:24:03.869Z,58.17
2023-01-07T23:25:03.903Z,56.09
2023-01-07T23:26:03.849Z,60.95
2023-01-07T23:27:03.836Z,58.60
2023-01-07T23:28:03.839Z,44.80
2023-01-07T23:29:03.832Z,52.32
2023-01-07T23:30:03.822Z,58.74
2023-01-07T23:31:03.839Z,56.67
2023-01-07T23:32:03.856Z,57.03
2023-01-07T23:33:03.799Z,50.41
2023-01-07T23:34:03.898Z,57.77
2023-01-07T23:35:03.775Z,55.79
2023-01-07T23:36:03.800Z,58.31
2023-01-07T23:37:03.838Z,58.94
2023-01-07T23:38:03.753Z,56.74
2023-01-07T23:39:03.779Z,56.60
2023-01-07T23:40:03.756Z,55.47
2023-01-07T23:41:05.721Z,53.98
2023-01-07T23:42:03.726Z,57.04
2023-01-07T23:43:03.856Z,56.85
2023-01-07T23:44:03.802Z,46.93
2023-01-07T23:45:03.952Z,57.77
2023-01-07T23:46:03.989Z,49.42
2023-01-07T23:47:03.683Z,59.30
2023-01-07T23:48:03.671Z,56.15
2023-01-07T23:49:03.677Z,52.52
2023-01-07T23:50:03.768Z,53.71
2023-01-07T23:51:03.643Z,58.37
2023-01-07T23:52:03.639Z,56.94
2023-01-07T23:53:03.628Z,58.86
2023-01-07T23:54:03.686Z,57.62
2023-01-07T23:55:03.617Z,57.52
2023-01-07T23:56:03.607Z,59.82
2023-01-07T23:57:03.595Z,54.85
2023-01-07T23:58:03.585Z,48.73
2023-01-07T23:59:03.575Z,54.63
